createdAt,value
2018-12-01T00:00:35.746Z,24.45
2018-12-01T00:02:09.711Z,24.77
2018-12-01T00:03:43.770Z,24.90
2018-12-01T00:05:18.098Z,24.30
2018-12-01T00:06:52.070Z,22.65
2018-12-01T00:08:26.030Z,23.38
2018-12-01T00:10:00.026Z,23.45
2018-12-01T00:11:34.063Z,22.82
2018-12-01T00:13:08.142Z,23.65
2018-12-01T00:14:42.146Z,24.95
2018-12-01T00:16:16.142Z,23.47
2018-12-01T00:17:50.183Z,23.15
2018-12-01T00:19:25.286Z,23.40
2018-12-01T00:20:58.452Z,22.65
2018-12-01T00:22:32.434Z,23.67
2018-12-01T00:24:06.833Z,23.80
2018-12-01T00:25:40.859Z,24.77
2018-12-01T00:27:14.843Z,23.50
2018-12-01T00:28:48.830Z,24.47
2018-12-01T00:30:24.373Z,23.55
2018-12-01T00:31:58.440Z,24.85
2018-12-01T00:33:32.399Z,25.35
2018-12-01T00:35:07.220Z,22.95
2018-12-01T00:36:41.570Z,24.27
2018-12-01T00:38:15.546Z,23.35
2018-12-01T00:39:49.569Z,23.92
2018-12-01T00:41:23.658Z,23.05
2018-12-01T00:42:57.730Z,24.00
2018-12-01T00:44:31.786Z,24.20
2018-12-01T00:46:06.403Z,23.57
2018-12-01T00:47:40.419Z,23.38
2018-12-01T00:49:14.442Z,21.80
2018-12-01T00:50:48.434Z,23.45
2018-12-01T00:52:22.491Z,22.10
2018-12-01T00:53:56.543Z,20.43
2018-12-01T00:55:30.807Z,21.40
2018-12-01T00:57:04.838Z,21.73
2018-12-01T00:58:38.843Z,20.88
2018-12-01T01:00:19.400Z,20.88
2018-12-01T01:01:53.523Z,21.17
2018-12-01T01:03:27.589Z,22.15
2018-12-01T01:05:02.227Z,20.77
2018-12-01T01:06:36.347Z,20.75
2018-12-01T01:08:10.423Z,21.73
2018-12-01T01:09:44.507Z,20.82
2018-12-01T01:11:19.001Z,20.65
2018-12-01T01:12:53.123Z,21.23
2018-12-01T01:14:27.204Z,21.77
2018-12-01T01:16:01.370Z,19.37
2018-12-01T01:17:36.433Z,21.52
2018-12-01T01:19:10.538Z,23.00
2018-12-01T01:20:44.608Z,20.72
2018-12-01T01:22:18.679Z,22.37
2018-12-01T01:23:52.853Z,21.55
2018-12-01T01:25:26.967Z,21.55
2018-12-01T01:27:01.096Z,21.02
2018-12-01T01:28:35.235Z,22.07
2018-12-01T01:30:25.942Z,22.00
2018-12-01T01:32:00.029Z,19.75
2018-12-01T01:33:34.159Z,20.15
2018-12-01T01:35:08.433Z,20.10
2018-12-01T01:36:42.632Z,21.50
2018-12-01T01:38:16.687Z,20.48
2018-12-01T01:39:50.764Z,20.30
2018-12-01T01:41:24.863Z,19.95
2018-12-01T01:42:58.924Z,21.20
2018-12-01T01:44:33.017Z,19.90
2018-12-01T01:46:07.118Z,20.00
2018-12-01T01:47:41.346Z,20.27
2018-12-01T01:49:15.456Z,18.67
2018-12-01T01:50:49.461Z,18.75
2018-12-01T01:52:23.657Z,20.12
2018-12-01T01:53:57.651Z,20.40
2018-12-01T01:55:31.662Z,19.92
2018-12-01T01:57:06.054Z,21.12
2018-12-01T01:58:40.275Z,20.97
2018-12-01T02:00:17.411Z,19.37
2018-12-01T02:01:51.529Z,19.70
2018-12-01T02:03:25.824Z,20.32
2018-12-01T02:05:00.259Z,19.57
2018-12-01T02:06:34.375Z,19.45
2018-12-01T02:08:08.560Z,20.12
2018-12-01T02:09:42.694Z,20.05
2018-12-01T02:11:16.789Z,19.90
2018-12-01T02:12:50.895Z,19.70
2018-12-01T02:14:25.031Z,21.75
2018-12-01T02:15:59.139Z,18.17
2018-12-01T02:17:33.301Z,20.65
2018-12-01T02:19:07.356Z,20.90
2018-12-01T02:20:41.449Z,20.95
2018-12-01T02:22:15.492Z,19.57
2018-12-01T02:23:49.554Z,19.27
2018-12-01T02:25:23.711Z,20.35
2018-12-01T02:26:57.800Z,20.20
2018-12-01T02:28:31.979Z,22.05
2018-12-01T02:30:09.032Z,21.37
2018-12-01T02:31:43.382Z,21.77
2018-12-01T02:33:17.479Z,19.80
2018-12-01T02:34:51.544Z,19.82
2018-12-01T02:36:25.636Z,20.77
2018-12-01T02:37:59.829Z,20.70
2018-12-01T02:39:33.987Z,22.40
2018-12-01T02:41:09.062Z,19.73
2018-12-01T02:42:43.654Z,20.17
2018-12-01T02:44:28.738Z,20.77
2018-12-01T02:46:13.851Z,20.35
2018-12-01T02:47:47.898Z,19.32
2018-12-01T02:49:21.911Z,19.52
2018-12-01T02:50:55.952Z,19.27
2018-12-01T02:52:30.083Z,20.08
2018-12-01T02:54:04.213Z,19.15
2018-12-01T02:55:38.339Z,21.02
2018-12-01T02:57:12.399Z,20.88
2018-12-01T02:58:46.484Z,20.77
2018-12-01T03:00:20.546Z,19.73
2018-12-01T03:01:54.734Z,21.48
2018-12-01T03:03:28.843Z,20.45
2018-12-01T03:05:04.232Z,20.35
2018-12-01T03:06:38.462Z,20.80
2018-12-01T03:08:12.540Z,20.17
2018-12-01T03:09:46.720Z,20.57
2018-12-01T03:11:20.861Z,20.55
2018-12-01T03:12:55.403Z,21.00
2018-12-01T03:14:29.453Z,20.27
2018-12-01T03:16:03.541Z,19.80
2018-12-01T03:17:37.628Z,22.02
2018-12-01T03:19:11.757Z,21.10
2018-12-01T03:20:45.876Z,20.12
2018-12-01T03:22:20.039Z,18.90
2018-12-01T03:23:54.229Z,19.23
2018-12-01T03:25:28.508Z,21.00
2018-12-01T03:27:02.687Z,19.45
2018-12-01T03:28:36.722Z,21.37
2018-12-01T03:30:11.442Z,19.27
2018-12-01T03:31:45.603Z,19.30
2018-12-01T03:33:19.633Z,20.35
2018-12-01T03:34:53.790Z,20.23
2018-12-01T03:36:27.831Z,20.08
2018-12-01T03:38:01.916Z,21.25
2018-12-01T03:39:36.012Z,20.57
2018-12-01T03:41:10.114Z,20.15
2018-12-01T03:42:44.250Z,21.02
2018-12-01T03:44:18.385Z,20.90
2018-12-01T03:45:52.450Z,19.95
2018-12-01T03:47:26.483Z,19.95
2018-12-01T03:49:00.576Z,20.52
2018-12-01T03:50:34.704Z,20.27
2018-12-01T03:52:08.754Z,19.87
2018-12-01T03:53:42.826Z,20.72
2018-12-01T03:55:24.609Z,20.65
2018-12-01T03:56:58.697Z,19.45
2018-12-01T03:58:32.835Z,19.20
2018-12-01T04:00:07.278Z,20.77
2018-12-01T04:01:41.456Z,20.30
2018-12-01T04:03:15.493Z,19.82
2018-12-01T04:04:49.710Z,20.43
2018-12-01T04:06:23.834Z,20.27
2018-12-01T04:07:58.090Z,20.70
2018-12-01T04:09:32.376Z,21.12
2018-12-01T04:11:06.970Z,21.93
2018-12-01T04:12:41.217Z,20.60
2018-12-01T04:14:15.566Z,20.20
2018-12-01T04:15:49.684Z,20.57
2018-12-01T04:17:24.205Z,21.65
2018-12-01T04:18:58.290Z,20.35
2018-12-01T04:20:32.482Z,19.37
2018-12-01T04:22:06.920Z,19.62
2018-12-01T04:23:41.004Z,21.87
2018-12-01T04:25:15.049Z,21.57
2018-12-01T04:26:49.142Z,19.80
2018-12-01T04:28:23.407Z,20.90
2018-12-01T04:29:57.667Z,20.48
2018-12-01T04:31:31.791Z,21.50
2018-12-01T04:33:06.875Z,20.72
2018-12-01T04:34:41.012Z,19.23
2018-12-01T04:36:15.199Z,19.95
2018-12-01T04:37:51.187Z,21.60
2018-12-01T04:39:25.321Z,20.35
2018-12-01T04:40:59.384Z,20.68
2018-12-01T04:42:33.435Z,20.92
2018-12-01T04:44:07.518Z,21.75
2018-12-01T04:45:41.519Z,21.77
2018-12-01T04:47:15.563Z,21.73
2018-12-01T04:48:49.650Z,21.87
2018-12-01T04:50:23.820Z,21.45
2018-12-01T04:51:57.934Z,21.80
2018-12-01T04:53:32.019Z,23.38
2018-12-01T04:55:07.819Z,21.93
2018-12-01T04:56:42.160Z,20.57
2018-12-01T04:58:16.274Z,21.15
2018-12-01T04:59:50.334Z,21.90
2018-12-01T05:01:24.453Z,21.25
2018-12-01T05:02:58.620Z,21.33
2018-12-01T05:04:32.671Z,21.65
2018-12-01T05:06:06.743Z,21.30
2018-12-01T05:07:40.840Z,22.75
2018-12-01T05:09:14.987Z,23.07
2018-12-01T05:10:49.091Z,21.60
2018-12-01T05:12:23.240Z,22.85
2018-12-01T05:13:57.433Z,22.65
2018-12-01T05:15:31.621Z,22.40
2018-12-01T05:17:05.866Z,21.93
2018-12-01T05:18:42.920Z,23.45
2018-12-01T05:20:23.865Z,21.97
2018-12-01T05:21:57.895Z,23.25
2018-12-01T05:23:31.950Z,22.48
2018-12-01T05:25:08.144Z,23.42
2018-12-01T05:26:42.192Z,22.75
2018-12-01T05:28:16.294Z,24.07
2018-12-01T05:29:56.658Z,20.97
2018-12-01T05:31:30.786Z,22.48
2018-12-01T05:33:05.088Z,22.10
2018-12-01T05:34:39.230Z,23.18
2018-12-01T05:36:13.313Z,23.22
2018-12-01T05:37:47.417Z,22.77
2018-12-01T05:39:21.431Z,22.42
2018-12-01T05:40:55.489Z,23.15
2018-12-01T05:42:29.757Z,23.90
2018-12-01T05:44:03.857Z,23.18
2018-12-01T05:45:38.111Z,23.27
2018-12-01T05:47:12.168Z,22.02
2018-12-01T05:48:46.216Z,21.73
2018-12-01T05:50:25.090Z,24.10
2018-12-01T05:51:59.172Z,23.47
2018-12-01T05:53:33.221Z,22.73
2018-12-01T05:55:11.602Z,21.57
2018-12-01T05:56:45.709Z,25.30
2018-12-01T05:58:19.701Z,23.83
2018-12-01T05:59:53.852Z,25.40
2018-12-01T06:01:27.939Z,24.45
2018-12-01T06:03:01.912Z,24.12
2018-12-01T06:04:35.942Z,23.22
2018-12-01T06:06:09.997Z,24.10
2018-12-01T06:07:44.458Z,23.73
2018-12-01T06:09:18.492Z,24.20
2018-12-01T06:10:52.536Z,24.57
2018-12-01T06:12:26.707Z,24.35
2018-12-01T06:14:00.938Z,26.73
2018-12-01T06:15:35.046Z,25.95
2018-12-01T06:17:09.085Z,25.80
2018-12-01T06:18:43.117Z,25.60
2018-12-01T06:20:18.443Z,24.02
2018-12-01T06:21:52.513Z,26.62
2018-12-01T06:23:26.600Z,26.75
2018-12-01T06:25:00.569Z,26.50
2018-12-01T06:26:34.619Z,27.02
2018-12-01T06:28:08.680Z,27.27
2018-12-01T06:29:42.695Z,26.97
2018-12-01T06:31:16.765Z,25.20
2018-12-01T06:32:51.998Z,25.57
2018-12-01T06:34:26.345Z,23.75
2018-12-01T06:36:07.082Z,27.73
2018-12-01T06:37:43.232Z,28.45
2018-12-01T06:39:20.547Z,26.02
2018-12-01T06:40:54.809Z,27.67
2018-12-01T06:42:29.232Z,27.00
2018-12-01T06:44:03.885Z,26.15
2018-12-01T06:45:40.984Z,28.32
2018-12-01T06:47:17.136Z,26.62
2018-12-01T06:48:55.958Z,25.90
2018-12-01T06:50:39.038Z,28.05
2018-12-01T06:52:16.661Z,28.98
2018-12-01T06:53:57.535Z,25.40
2018-12-01T06:55:31.684Z,28.92
2018-12-01T06:57:05.739Z,27.07
2018-12-01T06:58:39.902Z,28.73
2018-12-01T07:00:15.896Z,27.58
2018-12-01T07:01:49.976Z,28.87
2018-12-01T07:03:24.417Z,27.75
2018-12-01T07:05:09.104Z,27.05
2018-12-01T07:07:12.030Z,28.52
2018-12-01T07:21:41.243Z,26.82
2018-12-01T07:23:15.748Z,28.50
2018-12-01T07:24:51.951Z,28.40
2018-12-01T07:26:26.554Z,28.83
2018-12-01T07:28:11.093Z,28.45
2018-12-01T07:29:50.344Z,28.07
2018-12-01T07:31:35.586Z,28.98
2018-12-01T07:33:17.423Z,29.48
2018-12-01T07:34:57.232Z,28.83
2018-12-01T07:36:33.028Z,30.10
2018-12-01T07:38:16.503Z,28.85
2018-12-01T07:39:53.664Z,30.20
2018-12-01T07:41:34.208Z,29.25
2018-12-01T07:43:13.797Z,30.32
2018-12-01T07:44:48.457Z,30.55
2018-12-01T07:46:23.049Z,29.98
2018-12-01T07:48:02.578Z,29.32
2018-12-01T07:49:38.646Z,28.17
2018-12-01T07:51:25.925Z,29.65
2018-12-01T07:53:09.749Z,31.48
2018-12-01T07:54:48.366Z,29.82
2018-12-01T07:56:27.020Z,32.60
2018-12-01T07:58:02.859Z,28.62
2018-12-01T07:59:38.473Z,30.20
2018-12-01T08:03:29.953Z,28.27
2018-12-01T08:05:11.809Z,30.75
2018-12-01T08:06:46.301Z,29.12
2018-12-01T08:08:24.589Z,27.48
2018-12-01T08:10:00.666Z,30.27
2018-12-01T08:11:35.221Z,30.85
2018-12-01T08:13:12.460Z,30.40
2018-12-01T08:14:47.779Z,31.68
2018-12-01T08:16:22.363Z,33.05
2018-12-01T08:17:56.808Z,33.28
2018-12-01T08:19:31.291Z,33.63
2018-12-01T08:21:05.856Z,31.35
2018-12-01T08:22:40.254Z,31.97
2018-12-01T08:24:14.601Z,35.43
2018-12-01T08:25:50.029Z,30.35
2018-12-01T08:27:24.717Z,31.05
2018-12-01T08:28:59.140Z,31.37
2018-12-01T08:30:35.446Z,29.27
2018-12-01T08:32:09.598Z,28.95
2018-12-01T08:33:44.153Z,29.18
2018-12-01T08:35:18.307Z,31.68
2018-12-01T08:36:52.416Z,30.37
2018-12-01T08:38:26.536Z,27.10
2018-12-01T08:40:00.730Z,30.23
2018-12-01T08:41:34.736Z,30.65
2018-12-01T08:43:08.807Z,29.95
2018-12-01T08:44:43.703Z,28.98
2018-12-01T08:46:17.677Z,29.30
2018-12-01T08:47:51.716Z,30.17
2018-12-01T08:49:26.010Z,30.08
2018-12-01T08:51:00.158Z,29.05
2018-12-01T08:52:34.192Z,28.92
2018-12-01T08:54:08.254Z,30.32
2018-12-01T08:55:42.238Z,30.65
2018-12-01T08:57:16.371Z,29.98
2018-12-01T08:58:50.475Z,30.55
2018-12-01T09:00:27.931Z,30.05
2018-12-01T09:02:01.910Z,30.30
2018-12-01T09:03:35.898Z,32.08
2018-12-01T09:05:10.055Z,31.68
2018-12-01T09:06:44.632Z,30.35
2018-12-01T09:08:18.713Z,30.72
2018-12-01T09:09:53.024Z,30.50
2018-12-01T09:11:27.075Z,32.03
2018-12-01T09:13:01.731Z,30.30
2018-12-01T09:14:35.183Z,30.72
2018-12-01T09:16:09.555Z,33.48
2018-12-01T09:17:43.619Z,30.85
2018-12-01T09:19:17.688Z,30.40
2018-12-01T09:20:52.351Z,32.80
2018-12-01T09:22:26.416Z,30.32
2018-12-01T09:24:00.470Z,26.65
2018-12-01T09:40:15.044Z,21.75
2018-12-01T09:56:42.035Z,27.40
2018-12-01T09:58:16.977Z,28.60
2018-12-01T09:59:51.932Z,29.50
2018-12-01T10:01:26.855Z,28.20
2018-12-01T10:03:03.582Z,28.75
2018-12-01T10:04:38.679Z,27.95
2018-12-01T10:06:13.632Z,28.65
2018-12-01T10:07:48.695Z,29.98
2018-12-01T10:09:23.644Z,31.25
2018-12-01T10:10:58.657Z,29.70
2018-12-01T10:12:33.619Z,29.63
2018-12-01T10:14:08.580Z,29.00
2018-12-01T10:15:43.560Z,29.18
2018-12-01T10:17:18.611Z,28.90
2018-12-01T10:18:56.486Z,27.52
2018-12-01T10:20:36.185Z,30.05
2018-12-01T10:22:11.172Z,28.25
2018-12-01T10:23:46.234Z,30.85
2018-12-01T10:25:21.369Z,29.72
2018-12-01T10:26:56.344Z,30.52
2018-12-01T10:28:31.703Z,29.92
2018-12-01T10:30:27.250Z,27.05
2018-12-01T10:32:02.209Z,28.12
2018-12-01T10:33:38.724Z,30.62
2018-12-01T10:35:17.194Z,29.48
2018-12-01T10:36:52.280Z,29.32
2018-12-01T10:38:27.253Z,28.27
2018-12-01T10:40:02.233Z,31.02
2018-12-01T10:41:37.409Z,29.95
2018-12-01T10:43:12.519Z,30.25
2018-12-01T10:44:47.559Z,30.12
2018-12-01T10:46:24.037Z,30.32
2018-12-01T10:47:59.377Z,31.62
2018-12-01T10:49:34.651Z,28.85
2018-12-01T10:51:09.638Z,30.00
2018-12-01T10:52:45.876Z,30.35
2018-12-01T10:54:20.849Z,29.95
2018-12-01T10:55:56.274Z,30.20
2018-12-01T10:57:31.279Z,29.95
2018-12-01T10:59:06.304Z,31.12
2018-12-01T11:00:47.316Z,31.57
2018-12-01T11:02:27.509Z,28.90
2018-12-01T11:04:06.784Z,29.60
2018-12-01T11:05:41.858Z,30.02
2018-12-01T11:07:16.851Z,30.52
2018-12-01T11:08:52.498Z,29.75
2018-12-01T11:10:27.452Z,29.30
2018-12-01T11:12:02.452Z,30.27
2018-12-01T11:13:37.410Z,29.25
2018-12-01T11:15:12.447Z,27.82
2018-12-01T11:16:47.405Z,30.43
2018-12-01T11:18:22.358Z,29.30
2018-12-01T11:19:57.386Z,31.68
2018-12-01T11:21:32.469Z,32.65
2018-12-01T11:23:07.820Z,29.45
2018-12-01T11:24:42.850Z,30.48
2018-12-01T11:26:17.873Z,30.02
2018-12-01T11:27:52.968Z,30.20
2018-12-01T11:29:27.982Z,31.48
2018-12-01T11:31:03.013Z,31.10
2018-12-01T11:32:38.009Z,34.00
2018-12-01T11:34:13.075Z,30.97
2018-12-01T11:35:48.089Z,30.20
2018-12-01T11:37:23.083Z,32.80
2018-12-01T11:38:58.050Z,31.27
2018-12-01T11:40:33.095Z,33.88
2018-12-01T11:42:08.061Z,34.58
2018-12-01T11:43:43.102Z,32.48
2018-12-01T11:45:18.885Z,32.83
2018-12-01T11:46:53.968Z,33.20
2018-12-01T11:48:28.942Z,32.67
2018-12-01T11:50:04.061Z,31.82
2018-12-01T11:51:39.044Z,33.55
2018-12-01T11:53:14.103Z,32.45
2018-12-01T11:54:49.038Z,31.65
2018-12-01T11:56:24.032Z,31.70
2018-12-01T11:57:59.035Z,32.38
2018-12-01T11:59:34.067Z,32.48
2018-12-01T12:01:09.080Z,34.53
2018-12-01T12:02:44.087Z,33.88
2018-12-01T12:04:19.032Z,33.40
2018-12-01T12:05:54.009Z,34.10
2018-12-01T12:07:45.594Z,33.38
2018-12-01T12:09:20.551Z,33.25
2018-12-01T12:10:56.001Z,33.10
2018-12-01T12:12:30.976Z,34.43
2018-12-01T12:14:06.260Z,32.80
2018-12-01T12:15:41.236Z,32.42
2018-12-01T12:17:16.272Z,34.88
2018-12-01T12:18:51.261Z,32.20
2018-12-01T12:20:26.201Z,33.73
2018-12-01T12:22:01.172Z,33.88
2018-12-01T12:23:37.948Z,33.80
2018-12-01T12:25:13.247Z,33.83
2018-12-01T12:26:48.185Z,32.75
2018-12-01T12:28:23.172Z,33.02
2018-12-01T12:29:58.216Z,31.27
2018-12-01T12:31:33.184Z,32.48
2018-12-01T12:33:08.589Z,34.03
2018-12-01T12:34:43.598Z,35.43
2018-12-01T12:36:18.616Z,35.20
2018-12-01T12:37:54.691Z,35.13
2018-12-01T12:39:29.976Z,33.38
2018-12-01T12:41:05.164Z,34.67
2018-12-01T12:42:40.097Z,32.50
2018-12-01T12:44:15.132Z,35.17
2018-12-01T12:45:53.853Z,34.00
2018-12-01T12:47:28.828Z,34.83
2018-12-01T12:49:03.780Z,33.53
2018-12-01T12:50:39.139Z,35.52
2018-12-01T12:52:14.187Z,35.92
2018-12-01T12:53:49.159Z,35.68
2018-12-01T12:55:28.050Z,35.38
2018-12-01T12:57:03.219Z,35.15
2018-12-01T12:58:38.258Z,33.42
2018-12-01T13:00:17.421Z,33.90
2018-12-01T13:01:52.743Z,33.67
2018-12-01T13:03:27.776Z,34.75
2018-12-01T13:05:02.931Z,34.75
2018-12-01T13:06:38.228Z,33.00
2018-12-01T13:08:15.407Z,34.20
2018-12-01T13:09:50.427Z,36.00
2018-12-01T13:11:25.480Z,33.63
2018-12-01T13:13:00.463Z,33.50
2018-12-01T13:14:35.745Z,35.52
2018-12-01T13:16:10.779Z,35.73
2018-12-01T13:17:46.649Z,35.45
2018-12-01T13:19:21.631Z,32.42
2018-12-01T13:20:56.823Z,32.55
2018-12-01T13:22:31.780Z,34.00
2018-12-01T13:24:07.228Z,34.38
2018-12-01T13:25:43.157Z,33.20
2018-12-01T13:27:18.136Z,33.20
2018-12-01T13:28:53.130Z,34.67
2018-12-01T13:30:30.732Z,32.50
2018-12-01T13:32:06.004Z,35.25
2018-12-01T13:33:40.986Z,31.52
2018-12-01T13:35:15.959Z,31.05
2018-12-01T13:36:50.995Z,33.42
2018-12-01T13:38:26.119Z,33.30
2018-12-01T13:40:01.044Z,33.15
2018-12-01T13:41:36.070Z,32.33
2018-12-01T13:43:11.104Z,31.95
2018-12-01T13:44:46.028Z,32.58
2018-12-01T13:46:21.013Z,33.48
2018-12-01T13:47:55.986Z,34.67
2018-12-01T13:49:30.993Z,33.80
2018-12-01T13:51:05.940Z,32.67
2018-12-01T13:52:41.029Z,34.33
2018-12-01T13:54:15.971Z,33.53
2018-12-01T13:55:51.002Z,32.88
2018-12-01T13:57:26.003Z,31.97
2018-12-01T13:59:00.965Z,32.58
2018-12-01T14:00:35.985Z,33.48
2018-12-01T14:02:10.956Z,34.05
2018-12-01T14:03:45.913Z,32.67
2018-12-01T14:05:20.871Z,37.15
2018-12-01T14:06:55.816Z,34.55
2018-12-01T14:08:30.798Z,33.73
2018-12-01T14:10:10.007Z,34.13
2018-12-01T14:11:44.988Z,34.08
2018-12-01T14:13:20.050Z,34.78
2018-12-01T14:14:55.041Z,36.00
2018-12-01T14:16:30.138Z,35.35
2018-12-01T14:18:05.371Z,34.08
2018-12-01T14:19:40.341Z,35.80
2018-12-01T14:21:15.366Z,35.73
2018-12-01T14:22:51.341Z,34.80
2018-12-01T19:49:57.069Z,33.00
2018-12-01T19:51:33.284Z,33.25
2018-12-01T19:53:14.179Z,34.15
2018-12-01T19:54:50.226Z,34.38
2018-12-01T19:56:25.649Z,35.58
2018-12-01T19:58:02.888Z,33.63
2018-12-01T19:59:40.710Z,32.33
2018-12-01T20:01:16.711Z,33.20
2018-12-01T20:03:15.668Z,34.00
2018-12-01T20:04:51.611Z,32.83
2018-12-01T20:06:27.518Z,33.23
2018-12-01T20:08:23.100Z,33.55
2018-12-01T20:10:03.317Z,32.38
2018-12-01T20:11:44.247Z,33.88
2018-12-01T20:13:27.164Z,31.97
2018-12-01T20:15:02.597Z,32.67
2018-12-01T20:16:42.408Z,34.55
2018-12-01T20:18:23.901Z,33.35
2018-12-01T20:20:00.064Z,32.30
2018-12-01T20:21:35.268Z,30.32
2018-12-01T20:23:10.381Z,32.30
2018-12-01T20:24:45.487Z,33.35
2018-12-01T20:26:20.699Z,30.88
2018-12-01T20:27:55.895Z,29.65
2018-12-01T20:29:31.147Z,30.60
2018-12-01T20:31:06.440Z,30.82
2018-12-01T20:32:41.459Z,30.90
2018-12-01T20:34:16.604Z,30.92
2018-12-01T20:35:56.572Z,30.88
2018-12-01T20:37:31.757Z,29.48
2018-12-01T20:39:17.272Z,29.87
2018-12-01T20:40:57.458Z,28.50
2018-12-01T20:42:28.090Z,30.02
2018-12-01T20:44:03.110Z,29.40
2018-12-01T20:45:38.135Z,28.57
2018-12-01T20:47:19.428Z,29.35
2018-12-01T20:48:54.579Z,29.42
2018-12-01T20:50:30.665Z,28.92
2018-12-01T20:52:06.343Z,29.48
2018-12-01T20:53:41.350Z,29.15
2018-12-01T20:55:25.076Z,27.75
2018-12-01T20:57:07.185Z,29.02
2018-12-01T20:58:42.162Z,27.17
2018-12-01T21:00:17.134Z,29.27
2018-12-01T21:01:52.141Z,27.20
2018-12-01T21:03:27.089Z,27.75
2018-12-01T21:05:02.050Z,27.17
2018-12-01T21:06:36.992Z,27.65
2018-12-01T21:08:12.049Z,30.48
2018-12-01T21:09:46.996Z,28.32
2018-12-01T21:11:21.924Z,28.35
2018-12-01T21:12:58.298Z,30.05
2018-12-01T21:14:33.331Z,27.90
2018-12-01T21:16:08.844Z,27.58
2018-12-01T21:17:44.956Z,29.12
2018-12-01T21:19:19.912Z,25.12
2018-12-01T21:20:54.900Z,27.00
2018-12-01T21:22:29.847Z,25.97
2018-12-01T21:24:04.798Z,27.25
2018-12-01T21:25:39.879Z,27.62
2018-12-01T21:27:14.868Z,25.43
2018-12-01T21:28:49.843Z,29.82
2018-12-01T21:30:26.463Z,26.17
2018-12-01T21:32:01.408Z,27.30
2018-12-01T21:33:36.411Z,27.80
2018-12-01T21:35:13.551Z,26.80
2018-12-01T21:36:48.517Z,27.93
2018-12-01T21:38:23.520Z,29.72
2018-12-01T21:39:58.499Z,27.22
2018-12-01T21:41:33.523Z,27.93
2018-12-01T21:43:09.258Z,28.45
2018-12-01T21:44:44.207Z,27.60
2018-12-01T21:46:19.165Z,28.98
2018-12-01T21:47:54.106Z,28.25
2018-12-01T21:49:29.103Z,27.52
2018-12-01T21:51:04.035Z,27.80
2018-12-01T21:52:39.000Z,28.27
2018-12-01T21:54:14.011Z,28.02
2018-12-01T21:55:49.027Z,28.90
2018-12-01T21:57:23.999Z,26.97
2018-12-01T21:58:58.968Z,27.87
2018-12-01T22:00:34.359Z,27.20
2018-12-01T22:02:09.748Z,28.02
2018-12-01T22:03:44.789Z,27.27
2018-12-01T22:05:21.774Z,28.83
2018-12-01T22:06:56.816Z,28.47
2018-12-01T22:08:33.235Z,28.35
2018-12-01T22:10:12.830Z,29.63
2018-12-01T22:11:47.781Z,27.73
2018-12-01T22:13:22.741Z,29.37
2018-12-01T22:14:57.765Z,28.98
2018-12-01T22:16:32.743Z,27.77
2018-12-01T22:18:07.781Z,27.50
2018-12-01T22:19:42.760Z,27.77
2018-12-01T22:21:17.757Z,26.12
2018-12-01T22:22:53.386Z,26.82
2018-12-01T22:24:28.359Z,26.42
2018-12-01T22:26:03.346Z,28.60
2018-12-01T22:27:38.430Z,29.10
2018-12-01T22:29:13.403Z,28.57
2018-12-01T22:30:52.913Z,26.62
2018-12-01T22:32:28.108Z,27.65
2018-12-01T22:34:02.988Z,27.65
2018-12-01T22:35:38.148Z,27.52
2018-12-01T22:37:13.124Z,24.98
2018-12-01T22:38:48.073Z,26.30
2018-12-01T22:40:34.806Z,26.85
2018-12-01T22:42:09.735Z,26.87
2018-12-01T22:43:44.672Z,24.98
2018-12-01T22:45:19.632Z,27.50
2018-12-01T22:46:54.636Z,24.95
2018-12-01T22:48:29.620Z,24.60
2018-12-01T22:50:06.954Z,25.30
2018-12-01T22:51:41.903Z,24.37
2018-12-01T22:53:16.956Z,25.72
2018-12-01T22:54:51.980Z,24.52
2018-12-01T22:56:28.953Z,25.50
2018-12-01T22:58:09.551Z,24.87
2018-12-01T22:59:45.144Z,24.82
2018-12-01T23:01:20.138Z,22.27
2018-12-01T23:02:55.122Z,23.20
2018-12-01T23:04:30.056Z,22.27
2018-12-01T23:06:05.074Z,22.20
2018-12-01T23:07:40.223Z,23.50
2018-12-01T23:09:15.214Z,24.95
2018-12-01T23:10:50.197Z,23.80
2018-12-01T23:12:25.204Z,25.35
2018-12-01T23:14:00.118Z,24.10
2018-12-01T23:15:35.251Z,22.00
2018-12-01T23:17:10.198Z,22.13
2018-12-01T23:18:45.244Z,23.47
2018-12-01T23:20:22.712Z,23.45
2018-12-01T23:21:57.728Z,21.07
2018-12-01T23:23:32.704Z,21.10
2018-12-01T23:25:08.902Z,20.77
2018-12-01T23:26:43.884Z,21.50
2018-12-01T23:28:18.818Z,20.43
2018-12-01T23:29:53.763Z,21.87
2018-12-01T23:31:28.788Z,21.15
2018-12-01T23:33:11.371Z,19.92
2018-12-01T23:34:46.335Z,21.07
2018-12-01T23:36:21.272Z,21.87
2018-12-01T23:37:56.310Z,22.82
2018-12-01T23:39:31.268Z,21.17
2018-12-01T23:41:06.319Z,21.35
2018-12-01T23:42:41.526Z,22.40
2018-12-01T23:44:29.796Z,22.02
2018-12-01T23:46:04.709Z,21.75
2018-12-01T23:47:39.820Z,20.40
2018-12-01T23:49:14.764Z,20.82
2018-12-01T23:50:57.264Z,20.92
2018-12-01T23:52:32.232Z,21.15
2018-12-01T23:54:07.288Z,22.32
2018-12-01T23:55:42.333Z,21.27
2018-12-01T23:57:17.366Z,19.48
2018-12-01T23:58:52.348Z,20.62
